createdAt,value
2022-12-31T00:00:02.393Z,2803.541
2022-12-31T00:05:02.305Z,383.468
2022-12-31T00:10:02.331Z,372.237
2022-12-31T00:15:02.176Z,303.147
2022-12-31T00:20:02.221Z,264.952
2022-12-31T00:25:02.272Z,264.524
2022-12-31T00:30:04.603Z,261.359
2022-12-31T00:35:02.154Z,265.076
2022-12-31T00:40:02.146Z,262.204
2022-12-31T00:45:02.181Z,277.028
2022-12-31T00:50:02.337Z,401.97
2022-12-31T00:55:02.331Z,399.117
2022-12-31T01:00:02.372Z,385.467
2022-12-31T01:05:02.272Z,286.67
2022-12-31T01:10:02.284Z,275.627
2022-12-31T01:15:02.161Z,265.448
2022-12-31T01:20:02.276Z,263.875
2022-12-31T01:25:02.235Z,264.08
2022-12-31T01:30:02.336Z,262.03000000000003
2022-12-31T01:35:02.379Z,340.145
2022-12-31T01:40:02.321Z,382.373
2022-12-31T01:45:02.212Z,372.50100000000003
2022-12-31T01:50:02.439Z,305.819
2022-12-31T01:55:02.393Z,262.408
2022-12-31T02:00:02.241Z,286.538
2022-12-31T02:05:02.308Z,479.685
2022-12-31T02:10:02.245Z,2335.594
2022-12-31T02:15:02.227Z,2360.301
2022-12-31T02:20:02.318Z,2785.938
2022-12-31T02:25:02.288Z,2162.667
2022-12-31T02:30:02.260Z,400.981
2022-12-31T02:35:02.396Z,355.319
2022-12-31T02:40:02.452Z,263.05
2022-12-31T02:45:02.272Z,262.786
2022-12-31T02:50:02.362Z,269.003
2022-12-31T02:55:02.302Z,286.574
2022-12-31T03:00:02.288Z,286.822
2022-12-31T03:05:02.307Z,286.197
2022-12-31T03:10:02.369Z,364.314
2022-12-31T03:15:02.319Z,377.474
2022-12-31T03:20:02.437Z,374.47700000000003
2022-12-31T03:25:02.496Z,309.48
2022-12-31T03:30:02.455Z,269.517
2022-12-31T03:35:02.432Z,269.897
2022-12-31T03:40:02.322Z,269.50600000000003
2022-12-31T03:45:02.327Z,268.563
2022-12-31T03:50:02.348Z,268.399
2022-12-31T03:55:02.355Z,546.599
2022-12-31T04:00:02.397Z,389.305
2022-12-31T04:05:02.345Z,398.069
2022-12-31T04:10:02.405Z,390.135
2022-12-31T04:15:03.234Z,289.883
2022-12-31T04:20:02.568Z,291.093
2022-12-31T04:25:02.536Z,272.939
2022-12-31T04:30:02.396Z,264.012
2022-12-31T04:35:02.394Z,973.335
2022-12-31T04:40:06.106Z,2323.6820000000002
2022-12-31T04:45:02.429Z,2262.5660000000003
2022-12-31T04:50:02.462Z,2608.789
2022-12-31T04:55:02.470Z,3029.291
2022-12-31T05:00:02.389Z,314.38800000000003
2022-12-31T05:05:02.416Z,261.12
2022-12-31T05:10:02.569Z,259.265
2022-12-31T05:15:02.537Z,283.34000000000003
2022-12-31T05:20:02.559Z,280.967
2022-12-31T05:25:02.455Z,281.262
2022-12-31T05:30:02.445Z,280.60200000000003
2022-12-31T05:35:02.414Z,406.033
2022-12-31T05:40:02.411Z,405.178
2022-12-31T05:45:02.576Z,388.951
2022-12-31T05:50:02.543Z,262.23900000000003
2022-12-31T05:55:02.448Z,259.524
2022-12-31T06:00:02.651Z,259.33
2022-12-31T06:05:02.662Z,270.931
2022-12-31T06:10:02.631Z,284.914
2022-12-31T06:15:02.437Z,292.95300000000003
2022-12-31T06:20:06.079Z,408.02
2022-12-31T06:25:02.596Z,468.464
2022-12-31T06:30:02.499Z,438.84700000000004
2022-12-31T06:35:02.511Z,395.647
2022-12-31T06:40:02.457Z,328.689
2022-12-31T06:45:02.453Z,328.782
2022-12-31T06:50:02.692Z,1121.325
2022-12-31T06:55:02.664Z,2386.33
2022-12-31T07:00:02.640Z,2398.244
2022-12-31T07:05:02.563Z,2833.688
2022-12-31T07:10:02.497Z,1811.643
2022-12-31T07:15:02.525Z,373.659
2022-12-31T07:20:02.553Z,378.019
2022-12-31T07:25:02.541Z,320.193
2022-12-31T07:30:02.541Z,286.714
2022-12-31T07:35:02.539Z,283.69
2022-12-31T07:40:02.685Z,276.245
2022-12-31T07:45:02.745Z,257.767
2022-12-31T07:50:02.646Z,257.61400000000003
2022-12-31T07:55:02.557Z,280.95
2022-12-31T08:00:02.529Z,378.02
2022-12-31T08:05:02.544Z,371.286
2022-12-31T08:10:02.562Z,349.017
2022-12-31T08:15:02.584Z,264.266
2022-12-31T08:20:02.637Z,326.117
2022-12-31T08:25:02.658Z,326.986
2022-12-31T08:30:02.734Z,335.678
2022-12-31T08:35:02.954Z,353.90000000000003
2022-12-31T08:40:02.616Z,352.173
2022-12-31T08:45:02.598Z,435.83500000000004
2022-12-31T08:50:02.624Z,2198.93
2022-12-31T08:55:02.609Z,2578.717
2022-12-31T09:00:02.599Z,1185.483
2022-12-31T09:05:02.728Z,2112.886
2022-12-31T09:10:02.608Z,774.088
2022-12-31T09:15:02.650Z,373
2022-12-31T09:20:02.793Z,1674.938
2022-12-31T09:25:02.749Z,2415.641
2022-12-31T09:30:02.741Z,2717.415
2022-12-31T09:35:02.662Z,2917.936
2022-12-31T09:40:02.646Z,516.118
2022-12-31T09:45:02.785Z,520.923
2022-12-31T09:50:02.688Z,420.091
2022-12-31T09:55:02.640Z,419.427
2022-12-31T10:00:02.655Z,409.845
2022-12-31T10:05:02.647Z,307.16200000000003
2022-12-31T10:10:02.864Z,304.774
2022-12-31T10:15:02.868Z,304.939
2022-12-31T10:20:02.835Z,378.149
2022-12-31T10:25:02.722Z,424.63100000000003
2022-12-31T10:30:02.699Z,414.854
2022-12-31T10:35:02.763Z,357.314
2022-12-31T10:40:02.662Z,330.058
2022-12-31T10:45:02.828Z,329.464
2022-12-31T10:50:02.784Z,331.94100000000003
2022-12-31T10:55:02.702Z,329.115
2022-12-31T11:00:02.744Z,336.958
2022-12-31T11:05:02.935Z,343.425
2022-12-31T11:10:02.899Z,434.164
2022-12-31T11:15:03.028Z,423.644
2022-12-31T11:20:02.726Z,415.409
2022-12-31T11:25:02.788Z,317.878
2022-12-31T11:30:02.763Z,319.659
2022-12-31T11:35:02.892Z,330.383
2022-12-31T11:40:02.769Z,326.733
2022-12-31T11:45:02.758Z,387.047
2022-12-31T11:50:02.786Z,388.836
2022-12-31T11:55:03.149Z,410.313
2022-12-31T12:00:03.291Z,488.36
2022-12-31T12:05:08.391Z,481.16200000000003
2022-12-31T12:10:02.789Z,437.286
2022-12-31T12:15:02.789Z,368.647
2022-12-31T12:20:02.772Z,369.854
2022-12-31T12:25:02.748Z,1612.1390000000001
2022-12-31T12:30:02.824Z,2806.192
2022-12-31T12:35:02.839Z,2900.256
2022-12-31T12:40:02.820Z,3057.276
2022-12-31T12:45:03.016Z,1526.526
2022-12-31T12:50:02.959Z,445.995
2022-12-31T12:55:02.937Z,707.278
2022-12-31T13:00:02.837Z,2508.523
2022-12-31T13:05:02.879Z,2890.944
2022-12-31T13:25:02.963Z,231.211
2022-12-31T13:30:03.010Z,244.773
2022-12-31T13:35:02.952Z,350.604
2022-12-31T13:40:02.973Z,357.332
2022-12-31T13:45:02.883Z,354.789
2022-12-31T13:50:02.891Z,252.31900000000002
2022-12-31T13:55:02.876Z,252.869
2022-12-31T14:00:02.850Z,242.903
2022-12-31T14:05:02.833Z,235.84300000000002
2022-12-31T14:10:02.845Z,231.776
2022-12-31T14:15:02.888Z,229.168
2022-12-31T14:20:03.069Z,300.048
2022-12-31T14:25:03.055Z,344.53000000000003
2022-12-31T14:30:03.004Z,337.421
2022-12-31T14:35:02.898Z,274.362
2022-12-31T14:40:02.918Z,226.716
2022-12-31T14:45:02.917Z,227.383
2022-12-31T14:50:03.027Z,228.87800000000001
2022-12-31T14:55:03.042Z,242.478
2022-12-31T15:00:03.033Z,254.451
2022-12-31T15:05:02.913Z,258.107
2022-12-31T15:10:03.081Z,1941.017
2022-12-31T15:15:03.144Z,2365.224
2022-12-31T15:20:02.954Z,2311.993
2022-12-31T15:25:02.965Z,2731.522
2022-12-31T15:30:02.915Z,2832.7200000000003
2022-12-31T15:35:02.928Z,227.453
2022-12-31T15:40:02.964Z,226.411
2022-12-31T15:45:02.984Z,226.99
2022-12-31T15:50:03.204Z,225.53900000000002
2022-12-31T15:55:03.119Z,278.937
2022-12-31T16:00:03.097Z,343.003
2022-12-31T16:05:03.056Z,340.234
2022-12-31T16:10:02.976Z,314.826
2022-12-31T16:15:03.007Z,249.97
2022-12-31T16:20:02.984Z,249.50300000000001
2022-12-31T16:25:29.498Z,252.75900000000001
2022-12-31T16:30:02.976Z,258.454
2022-12-31T16:35:03.207Z,259.219
2022-12-31T16:40:03.184Z,227.37300000000002
2022-12-31T16:45:03.123Z,317.805
2022-12-31T16:50:02.975Z,343.90500000000003
2022-12-31T16:55:03.033Z,338.389
2022-12-31T17:00:02.997Z,288.015
2022-12-31T17:05:03.112Z,252.49200000000002
2022-12-31T17:10:02.996Z,253.166
2022-12-31T17:15:03.100Z,253.042
2022-12-31T17:20:03.040Z,241.524
2022-12-31T17:25:03.196Z,230.049
2022-12-31T17:30:03.125Z,244.67600000000002
2022-12-31T17:35:03.041Z,351.359
2022-12-31T17:40:24.906Z,343.422
2022-12-31T17:45:03.116Z,330.442
2022-12-31T17:50:03.068Z,230.893
2022-12-31T17:55:03.105Z,231.014
2022-12-31T18:00:03.080Z,231.33
2022-12-31T18:05:03.268Z,230.532
2022-12-31T18:10:03.229Z,230.127
2022-12-31T18:15:03.055Z,246.538
2022-12-31T18:20:08.072Z,322.866
2022-12-31T18:25:03.203Z,371.37600000000003
2022-12-31T18:30:04.906Z,364.03000000000003
2022-12-31T18:35:03.093Z,287.516
2022-12-31T18:40:03.084Z,231.774
2022-12-31T18:45:03.137Z,231.493
2022-12-31T18:50:03.291Z,230.21200000000002
2022-12-31T18:55:03.258Z,231.136
2022-12-31T19:00:03.143Z,232.202
2022-12-31T19:05:03.158Z,231.607
2022-12-31T19:10:03.145Z,356.844
2022-12-31T19:15:01.310Z,345.331
2022-12-31T19:20:01.574Z,336.73900000000003
2022-12-31T19:25:01.517Z,238.221
2022-12-31T19:30:01.433Z,2027.297
2022-12-31T19:35:01.327Z,2301.776
2022-12-31T19:40:01.334Z,2751.8740000000003
2022-12-31T19:45:01.350Z,2591.926
2022-12-31T19:50:01.310Z,264.711
2022-12-31T19:55:01.357Z,317.16200000000003
2022-12-31T20:00:01.396Z,350.41700000000003
2022-12-31T20:05:01.345Z,343.813
2022-12-31T20:10:01.501Z,283.51
2022-12-31T20:15:01.492Z,243.657
2022-12-31T20:20:01.470Z,262.436
2022-12-31T20:25:01.445Z,269.979
2022-12-31T20:30:01.370Z,270.361
2022-12-31T20:35:01.402Z,269.843
2022-12-31T20:40:01.395Z,262.286
2022-12-31T20:45:01.318Z,361.67400000000004
2022-12-31T20:50:11.355Z,360.891
2022-12-31T20:55:01.677Z,356.409
2022-12-31T21:00:01.585Z,273.12
2022-12-31T21:05:01.658Z,242.663
2022-12-31T21:10:01.378Z,243.56
2022-12-31T21:15:01.463Z,228.916
2022-12-31T21:20:01.398Z,217.42600000000002
2022-12-31T21:25:01.461Z,217.531
2022-12-31T21:30:18.084Z,224.86100000000002
2022-12-31T21:35:39.971Z,340.36400000000003
2022-12-31T21:40:01.418Z,353.395
2022-12-31T21:45:01.567Z,338.061
2022-12-31T21:50:01.536Z,238.633
2022-12-31T21:55:01.437Z,234.764
2022-12-31T22:00:24.301Z,215.73000000000002
2022-12-31T22:05:02.791Z,213.559
2022-12-31T22:10:01.514Z,213.571
2022-12-31T22:15:15.360Z,237.994
2022-12-31T22:20:26.833Z,301.823
2022-12-31T22:25:01.693Z,357.789
2022-12-31T22:30:01.604Z,348.841
2022-12-31T22:35:01.574Z,291.05
2022-12-31T22:40:01.442Z,240.314
2022-12-31T22:45:01.449Z,240.28
2022-12-31T22:50:01.518Z,255.36100000000002
2022-12-31T22:55:01.501Z,265.31
2022-12-31T23:00:01.548Z,265.226
2022-12-31T23:05:15.103Z,264.592
2022-12-31T23:10:01.667Z,1494.528
2022-12-31T23:15:01.598Z,2379.332
2022-12-31T23:20:01.537Z,2518.101
2022-12-31T23:25:01.552Z,2872.755
2022-12-31T23:30:01.524Z,677.004
2022-12-31T23:35:06.206Z,214.471
2022-12-31T23:40:01.608Z,213.679
2022-12-31T23:45:01.504Z,235.279
2022-12-31T23:50:01.525Z,237.04
2022-12-31T23:55:01.712Z,295.007
